createdAt,value
2018-12-07T00:01:53.181Z,10.43
2018-12-07T00:04:25.938Z,10.40
2018-12-07T00:06:58.518Z,10.44
2018-12-07T00:09:31.163Z,10.44
2018-12-07T00:12:03.977Z,10.46
2018-12-07T00:14:36.594Z,10.45
2018-12-07T00:17:09.498Z,10.40
2018-12-07T00:19:47.954Z,10.44
2018-12-07T00:22:17.158Z,10.41
2018-12-07T00:24:49.786Z,10.41
2018-12-07T00:27:22.389Z,10.39
2018-12-07T00:29:55.003Z,10.41
2018-12-07T00:32:27.929Z,10.42
2018-12-07T00:35:02.676Z,10.36
2018-12-07T00:37:35.304Z,10.35
2018-12-07T00:40:08.417Z,10.33
2018-12-07T00:42:41.022Z,10.34
2018-12-07T00:45:13.698Z,10.36
2018-12-07T00:47:46.295Z,10.32
2018-12-07T00:50:19.232Z,10.30
2018-12-07T00:52:52.652Z,10.32
2018-12-07T00:55:38.486Z,10.33
2018-12-07T00:58:15.041Z,10.33
2018-12-07T01:00:49.146Z,10.32
2018-12-07T01:03:26.102Z,10.30
2018-12-07T01:06:00.622Z,10.27
2018-12-07T01:08:34.802Z,10.27
2018-12-07T01:11:10.679Z,10.28
2018-12-07T01:13:49.080Z,10.32
2018-12-07T01:16:26.054Z,10.27
2018-12-07T01:19:03.548Z,10.26
2018-12-07T01:21:39.585Z,10.23
2018-12-07T01:24:16.244Z,10.21
2018-12-07T01:26:50.899Z,10.19
2018-12-07T01:29:26.001Z,10.17
2018-12-07T01:32:04.166Z,10.17
2018-12-07T01:34:40.317Z,10.14
2018-12-07T01:37:16.560Z,10.13
2018-12-07T01:40:01.875Z,10.12
2018-12-07T01:42:38.967Z,10.08
2018-12-07T01:45:16.297Z,10.09
2018-12-07T01:47:55.537Z,10.09
2018-12-07T01:50:34.416Z,10.11
2018-12-07T01:53:13.165Z,10.11
2018-12-07T01:55:49.438Z,10.10
2018-12-07T01:58:24.625Z,10.15
2018-12-07T02:01:02.962Z,10.08
2018-12-07T02:03:40.016Z,10.08
2018-12-07T02:06:15.477Z,10.05
2018-12-07T02:08:49.838Z,10.07
2018-12-07T02:11:23.409Z,10.05
2018-12-07T02:13:59.329Z,10.05
2018-12-07T02:16:38.004Z,10.03
2018-12-07T02:19:11.865Z,10.04
2018-12-07T02:21:52.291Z,10.04
2018-12-07T02:24:29.860Z,10.02
2018-12-07T02:27:02.958Z,10.01
2018-12-07T02:29:41.454Z,9.99
2018-12-07T02:32:18.158Z,9.95
2018-12-07T02:34:54.465Z,9.95
2018-12-07T02:37:27.991Z,9.95
2018-12-07T02:40:03.632Z,9.94
2018-12-07T02:42:39.639Z,9.90
2018-12-07T02:45:15.777Z,9.89
2018-12-07T02:47:53.701Z,9.87
2018-12-07T02:50:30.505Z,9.91
2018-12-07T02:53:08.980Z,9.87
2018-12-07T02:55:47.750Z,9.87
2018-12-07T02:58:21.695Z,9.85
2018-12-07T03:00:56.529Z,9.90
2018-12-07T03:03:33.326Z,9.85
2018-12-07T03:06:07.304Z,9.83
2018-12-07T03:08:43.043Z,9.82
2018-12-07T03:11:18.465Z,9.83
2018-12-07T03:13:53.247Z,9.83
2018-12-07T03:16:26.454Z,9.83
2018-12-07T03:18:59.044Z,9.83
2018-12-07T03:21:31.660Z,9.82
2018-12-07T03:24:04.421Z,9.81
2018-12-07T03:26:38.497Z,9.81
2018-12-07T03:29:13.129Z,9.81
2018-12-07T03:31:47.077Z,9.82
2018-12-07T03:34:19.677Z,9.80
2018-12-07T03:36:53.496Z,9.81
2018-12-07T03:39:27.372Z,9.81
2018-12-07T03:42:00.984Z,9.80
2018-12-07T03:44:35.736Z,9.84
2018-12-07T03:47:10.687Z,9.83
2018-12-07T03:52:53.667Z,9.82
2018-12-07T03:55:26.335Z,9.81
2018-12-07T03:58:00.271Z,9.79
2018-12-07T04:00:39.937Z,9.80
2018-12-07T04:10:08.561Z,9.79
2018-12-07T04:12:44.738Z,9.82
2018-12-07T04:15:17.997Z,9.81
2018-12-07T04:17:56.262Z,9.82
2018-12-07T04:20:33.998Z,9.82
2018-12-07T04:23:10.569Z,9.80
2018-12-07T04:25:44.824Z,9.82
2018-12-07T04:28:20.991Z,9.78
2018-12-07T04:30:58.309Z,9.79
2018-12-07T04:33:31.090Z,9.80
2018-12-07T04:36:07.453Z,9.81
2018-12-07T04:38:42.377Z,9.80
2018-12-07T04:41:14.997Z,9.80
2018-12-07T04:43:50.763Z,9.80
2018-12-07T04:46:28.126Z,9.79
2018-12-07T04:49:01.564Z,9.83
2018-12-07T04:51:38.431Z,9.84
2018-12-07T04:54:17.412Z,9.85
2018-12-07T04:56:50.913Z,9.83
2018-12-07T04:59:23.572Z,9.82
2018-12-07T05:01:58.284Z,9.84
2018-12-07T05:04:32.229Z,9.84
2018-12-07T05:07:04.756Z,9.83
2018-12-07T05:09:38.959Z,9.83
2018-12-07T05:12:11.545Z,9.82
2018-12-07T05:14:45.606Z,9.81
2018-12-07T05:17:18.661Z,9.79
2018-12-07T05:19:52.725Z,9.81
2018-12-07T05:22:25.361Z,9.79
2018-12-07T05:25:00.255Z,9.81
2018-12-07T05:27:35.188Z,9.85
2018-12-07T05:30:08.814Z,9.80
2018-12-07T05:32:41.767Z,9.82
2018-12-07T05:35:16.910Z,9.83
2018-12-07T05:37:50.610Z,9.87
2018-12-07T05:40:24.519Z,9.83
2018-12-07T05:42:58.093Z,9.84
2018-12-07T05:45:31.398Z,9.87
2018-12-07T05:48:04.683Z,9.85
2018-12-07T05:50:40.786Z,9.84
2018-12-07T05:53:16.699Z,9.84
2018-12-07T05:55:49.272Z,9.86
2018-12-07T05:58:23.377Z,9.84
2018-12-07T10:36:17.013Z,10.03
2018-12-07T10:38:49.592Z,10.02
2018-12-07T10:41:22.222Z,10.03
2018-12-07T10:43:54.807Z,9.97
2018-12-07T10:46:27.501Z,9.95
2018-12-07T10:49:00.117Z,9.94
2018-12-07T10:51:32.767Z,9.95
2018-12-07T10:54:05.317Z,9.94
2018-12-07T10:56:37.937Z,9.94
2018-12-07T10:59:10.627Z,9.93
2018-12-07T11:02:48.458Z,9.93
2018-12-07T11:05:26.714Z,9.86
2018-12-07T11:08:05.128Z,9.91
2018-12-07T11:10:44.110Z,9.90
2018-12-07T11:13:23.353Z,9.91
2018-12-07T11:16:01.767Z,9.92
2018-12-07T11:18:41.271Z,9.92
2018-12-07T11:21:20.085Z,9.93
2018-12-07T11:24:58.915Z,9.97
2018-12-07T11:27:37.211Z,9.99
2018-12-07T11:30:15.706Z,9.98
2018-12-07T11:32:54.629Z,10.02
2018-12-07T11:35:30.124Z,10.07
2018-12-07T11:38:02.789Z,10.11
2018-12-07T11:40:35.399Z,10.08
2018-12-07T11:43:09.967Z,10.07
2018-12-07T11:45:42.565Z,10.12
2018-12-07T11:48:15.125Z,10.08
2018-12-07T11:50:47.753Z,10.03
2018-12-07T11:53:20.349Z,10.10
2018-12-07T11:55:52.963Z,10.15
2018-12-07T11:58:26.004Z,10.14
2018-12-07T12:00:58.532Z,10.12
2018-12-07T12:03:32.254Z,10.07
2018-12-07T12:06:04.946Z,10.13
2018-12-07T12:08:37.534Z,10.12
2018-12-07T12:11:12.264Z,10.11
2018-12-07T12:13:44.896Z,10.09
2018-12-07T12:16:18.680Z,10.14
2018-12-07T12:18:51.296Z,10.22
2018-12-07T12:21:24.059Z,10.29
2018-12-07T12:23:56.676Z,10.24
2018-12-07T12:26:29.555Z,10.25
2018-12-07T12:29:02.311Z,10.22
2018-12-07T12:31:34.961Z,10.35
2018-12-07T12:34:08.557Z,10.32
2018-12-07T12:36:41.313Z,10.33
2018-12-07T12:39:14.112Z,10.38
2018-12-07T12:41:46.981Z,10.36
2018-12-07T12:44:19.867Z,10.45
2018-12-07T12:46:52.471Z,10.36
2018-12-07T12:49:27.127Z,10.36
2018-12-07T12:51:59.727Z,10.29
2018-12-07T12:54:32.464Z,10.36
2018-12-07T12:57:05.033Z,10.34
2018-12-07T12:59:37.737Z,10.38
2018-12-07T13:02:10.323Z,10.40
2018-12-07T13:04:42.910Z,10.40
2018-12-07T13:07:16.181Z,10.45
2018-12-07T13:09:48.888Z,10.40
2018-12-07T13:12:21.396Z,10.46
2018-12-07T13:14:54.041Z,10.47
2018-12-07T13:17:26.672Z,10.51
2018-12-07T13:19:59.313Z,10.48
2018-12-07T13:22:32.026Z,10.52
2018-12-07T13:25:05.979Z,10.47
2018-12-07T13:27:38.576Z,10.56
2018-12-07T13:30:11.288Z,10.51
2018-12-07T13:32:44.041Z,10.50
2018-12-07T13:35:16.686Z,10.58
2018-12-07T13:37:49.252Z,10.56
2018-12-07T13:40:21.856Z,10.55
2018-12-07T13:42:54.790Z,10.54
2018-12-07T13:45:27.608Z,10.57
2018-12-07T13:48:01.563Z,10.57
2018-12-07T13:50:41.117Z,10.56
2018-12-07T13:53:15.916Z,10.68
2018-12-07T13:55:48.733Z,10.62
2018-12-07T13:58:21.600Z,10.56
2018-12-07T14:00:54.286Z,10.65
2018-12-07T14:03:27.067Z,10.64
2018-12-07T14:06:00.267Z,10.62
2018-12-07T14:08:33.001Z,10.60
2018-12-07T14:11:06.637Z,10.61
2018-12-07T14:13:39.597Z,10.64
2018-12-07T14:16:12.453Z,10.60
2018-12-07T14:18:45.528Z,10.60
2018-12-07T14:21:19.451Z,10.64
2018-12-07T14:23:52.117Z,10.72
2018-12-07T14:26:24.851Z,10.60
2018-12-07T14:28:57.474Z,10.65
2018-12-07T14:31:30.310Z,10.72
2018-12-07T14:34:03.177Z,10.73
2018-12-07T14:36:36.006Z,10.70
2018-12-07T14:39:08.656Z,10.73
2018-12-07T14:41:41.427Z,10.72
2018-12-07T14:44:14.193Z,10.71
2018-12-07T14:46:46.972Z,10.64
2018-12-07T14:49:19.834Z,10.57
2018-12-07T14:51:52.516Z,10.44
2018-12-07T14:54:25.260Z,10.24
2018-12-07T14:56:58.096Z,10.08
2018-12-07T14:59:30.892Z,10.02
2018-12-07T15:02:05.519Z,9.89
2018-12-07T15:04:38.379Z,9.79
2018-12-07T15:07:11.403Z,9.69
2018-12-07T15:09:44.193Z,9.60
2018-12-07T15:12:17.619Z,9.58
2018-12-07T15:14:50.417Z,9.56
2018-12-07T15:17:23.422Z,9.67
2018-12-07T15:19:56.226Z,9.61
2018-12-07T15:22:29.216Z,9.56
2018-12-07T15:25:01.963Z,9.54
2018-12-07T15:27:34.672Z,9.47
2018-12-07T15:30:08.642Z,9.48
2018-12-07T15:32:41.543Z,9.42
2018-12-07T15:35:14.560Z,9.45
2018-12-07T15:37:47.443Z,9.42
2018-12-07T15:40:20.043Z,9.46
2018-12-07T15:42:53.884Z,9.46
2018-12-07T15:45:26.769Z,9.46
2018-12-07T15:47:59.917Z,9.41
2018-12-07T15:50:32.650Z,9.45
2018-12-07T15:53:05.791Z,9.49
2018-12-07T15:55:38.714Z,9.57
2018-12-07T15:58:11.614Z,9.61
2018-12-07T16:00:45.534Z,9.65
2018-12-07T16:03:18.394Z,9.63
2018-12-07T16:05:51.254Z,9.60
2018-12-07T16:08:25.579Z,9.61
2018-12-07T16:10:58.501Z,9.68
2018-12-07T16:13:31.516Z,9.75
2018-12-07T16:16:04.488Z,9.76
2018-12-07T16:18:37.454Z,9.85
2018-12-07T16:21:10.429Z,9.94
2018-12-07T16:23:43.281Z,10.00
2018-12-07T16:26:16.234Z,9.98
2018-12-07T16:28:49.111Z,10.04
2018-12-07T16:31:22.108Z,9.97
2018-12-07T16:33:55.401Z,9.85
2018-12-07T16:36:28.208Z,9.63
2018-12-07T16:39:01.154Z,9.57
2018-12-07T16:41:36.113Z,9.51
2018-12-07T16:44:09.122Z,9.54
2018-12-07T16:46:42.034Z,9.44
2018-12-07T16:49:14.727Z,9.38
2018-12-07T16:51:47.526Z,9.48
2018-12-07T16:54:20.382Z,9.50
2018-12-07T16:56:53.056Z,9.47
2018-12-07T16:59:26.123Z,9.44
2018-12-07T17:01:59.777Z,9.44
2018-12-07T17:04:32.809Z,9.40
2018-12-07T17:07:05.540Z,9.46
2018-12-07T17:09:38.516Z,9.35
2018-12-07T17:12:11.507Z,9.37
2018-12-07T17:14:44.458Z,9.31
2018-12-07T17:17:17.269Z,9.40
2018-12-07T17:19:50.004Z,9.30
2018-12-07T17:22:22.790Z,9.31
2018-12-07T17:24:55.709Z,9.26
2018-12-07T17:27:28.332Z,9.17
2018-12-07T17:30:01.058Z,9.14
2018-12-07T17:32:34.592Z,9.11
2018-12-07T17:35:07.431Z,9.07
2018-12-07T17:37:40.205Z,9.04
2018-12-07T17:40:14.072Z,8.94
2018-12-07T17:42:47.015Z,9.01
2018-12-07T17:45:20.138Z,9.02
2018-12-07T17:47:53.051Z,8.97
2018-12-07T17:50:26.094Z,9.01
2018-12-07T17:52:58.845Z,9.00
2018-12-07T17:55:32.139Z,8.97
2018-12-07T17:58:04.959Z,8.94
2018-12-07T18:00:37.894Z,8.87
2018-12-07T18:03:10.853Z,8.93
2018-12-07T18:05:44.326Z,8.86
2018-12-07T18:08:17.321Z,8.96
2018-12-07T18:10:50.140Z,8.92
2018-12-07T18:13:23.137Z,8.79
2018-12-07T18:15:56.235Z,8.81
2018-12-07T18:18:29.071Z,8.88
2018-12-07T18:21:01.725Z,8.90
2018-12-07T18:23:34.598Z,9.01
2018-12-07T18:26:07.784Z,8.92
2018-12-07T18:28:40.790Z,8.85
2018-12-07T18:31:13.484Z,8.80
2018-12-07T18:33:46.760Z,8.83
2018-12-07T18:36:19.530Z,8.83
2018-12-07T18:38:52.255Z,8.87
2018-12-07T18:41:25.084Z,8.79
2018-12-07T18:43:58.128Z,8.82
2018-12-07T18:46:31.100Z,8.91
2018-12-07T18:49:03.985Z,8.93
2018-12-07T18:51:36.941Z,8.94
2018-12-07T18:54:09.927Z,8.90
2018-12-07T18:56:42.697Z,9.10
2018-12-07T18:59:15.499Z,9.00
2018-12-07T19:01:48.452Z,8.99
2018-12-07T19:04:21.210Z,9.05
2018-12-07T19:06:53.869Z,8.99
2018-12-07T19:09:26.644Z,8.86
2018-12-07T19:11:59.380Z,8.87
2018-12-07T19:14:33.192Z,8.82
2018-12-07T19:17:06.267Z,8.65
2018-12-07T19:19:39.051Z,8.30
2018-12-07T19:22:11.741Z,7.95
2018-12-07T19:24:44.461Z,7.62
2018-12-07T19:27:17.475Z,7.31
2018-12-07T19:29:50.679Z,7.06
2018-12-07T19:32:23.347Z,6.90
2018-12-07T19:34:56.270Z,6.78
2018-12-07T19:37:30.531Z,6.65
2018-12-07T19:40:03.765Z,6.55
2018-12-07T19:42:37.119Z,6.46
2018-12-07T19:45:10.635Z,6.42
2018-12-07T19:47:43.719Z,6.31
2018-12-07T19:50:16.548Z,6.24
2018-12-07T19:52:49.376Z,6.22
2018-12-07T19:55:22.068Z,6.14
2018-12-07T19:57:55.366Z,6.18
2018-12-07T20:00:28.366Z,6.18
2018-12-07T20:03:01.532Z,6.12
2018-12-07T20:05:34.573Z,6.07
2018-12-07T20:08:07.564Z,6.01
2018-12-07T20:10:40.474Z,6.00
2018-12-07T20:13:13.385Z,6.00
2018-12-07T20:15:46.781Z,5.95
2018-12-07T20:18:19.941Z,5.94
2018-12-07T20:20:52.665Z,5.92
2018-12-07T20:23:25.384Z,5.87
2018-12-07T20:25:58.917Z,5.84
2018-12-07T20:28:31.957Z,5.84
2018-12-07T20:31:05.289Z,5.82
2018-12-07T20:33:38.159Z,5.79
2018-12-07T20:36:10.982Z,5.77
2018-12-07T20:38:43.816Z,5.79
2018-12-07T20:41:16.892Z,5.75
2018-12-07T20:43:50.153Z,5.74
2018-12-07T20:46:24.116Z,5.75
2018-12-07T20:48:57.106Z,5.71
2018-12-07T20:51:29.965Z,5.72
2018-12-07T20:54:02.736Z,5.70
2018-12-07T20:56:36.381Z,5.66
2018-12-07T20:59:09.159Z,5.69
2018-12-07T21:01:42.065Z,5.62
2018-12-07T21:04:33.537Z,5.62
2018-12-07T21:08:19.506Z,5.58
2018-12-07T21:11:09.220Z,5.59
2018-12-07T21:14:53.189Z,5.60
2018-12-07T21:17:31.698Z,5.61
2018-12-07T21:20:23.588Z,5.62
2018-12-07T21:22:56.465Z,5.60
2018-12-07T21:25:29.563Z,5.60
2018-12-07T21:28:02.469Z,5.63
2018-12-07T21:30:58.667Z,5.71
2018-12-07T21:34:42.410Z,5.76
2018-12-07T21:37:15.524Z,5.72
2018-12-07T21:39:56.479Z,5.66
2018-12-07T21:42:29.495Z,5.70
2018-12-07T21:45:02.375Z,5.71
2018-12-07T21:50:57.859Z,5.67
2018-12-07T21:53:30.703Z,5.63
2018-12-07T21:56:03.758Z,5.65
2018-12-07T21:58:36.769Z,5.60
2018-12-07T22:01:09.854Z,5.55
2018-12-07T22:03:42.694Z,5.53
2018-12-07T22:06:15.650Z,5.45
2018-12-07T22:08:48.806Z,5.48
2018-12-07T22:11:21.699Z,5.47
2018-12-07T22:13:54.717Z,5.56
2018-12-07T22:16:27.337Z,5.48
2018-12-07T22:19:00.113Z,5.43
2018-12-07T22:21:33.223Z,5.40
2018-12-07T22:24:06.237Z,5.39
2018-12-07T22:26:40.422Z,5.46
2018-12-07T22:29:13.450Z,5.42
2018-12-07T22:31:46.464Z,5.42
2018-12-07T22:34:19.475Z,5.48
2018-12-07T22:36:52.382Z,5.45
2018-12-07T22:39:25.144Z,5.48
2018-12-07T22:41:58.049Z,5.49
2018-12-07T22:44:31.159Z,5.56
2018-12-07T22:47:04.165Z,5.63
2018-12-07T22:49:36.835Z,5.65
2018-12-07T22:52:09.515Z,5.64
2018-12-07T22:54:42.235Z,5.69
2018-12-07T22:57:14.961Z,5.69
2018-12-07T22:59:47.600Z,5.71
2018-12-07T23:02:20.451Z,5.71
2018-12-07T23:04:53.231Z,5.71
2018-12-07T23:08:55.462Z,5.73
2018-12-07T23:11:28.256Z,5.74
2018-12-07T23:14:00.843Z,5.71
2018-12-07T23:16:33.438Z,5.69
2018-12-07T23:19:06.065Z,5.66
2018-12-07T23:21:38.859Z,5.57
2018-12-07T23:24:11.459Z,5.49
2018-12-07T23:26:44.224Z,5.31
2018-12-07T23:29:22.314Z,5.23
2018-12-07T23:31:54.938Z,5.17
2018-12-07T23:34:27.640Z,5.20
2018-12-07T23:37:00.253Z,5.16
2018-12-07T23:39:32.906Z,5.19
2018-12-07T23:42:05.591Z,5.28
2018-12-07T23:44:38.256Z,5.26
2018-12-07T23:47:10.878Z,5.21
2018-12-07T23:49:43.506Z,5.16
2018-12-07T23:52:16.112Z,5.10
2018-12-07T23:54:48.617Z,5.22
2018-12-07T23:57:21.185Z,5.25
2018-12-07T23:59:53.716Z,5.22
